Terminal Aerodrome Forecast
Issued by NWS Sterling, VA

Current Version | Previous Version | Text Only | Print | Product List | Glossary Off
Versions: 1 2 3 4 5 6 7 8 9 10 11 12 13

000
FTUS41 KLWX 230540
TAFMRB
TAF
KMRB 230540Z 2306/2406 19004KT P6SM SCT110 BKN250
     FM230700 22005KT P6SM -SHRA BKN080 OVC250
     FM231100 20008KT 6SM SHRA BKN015 OVC050
     FM231300 21009KT P6SM OVC040
     FM231500 25013G21KT P6SM BKN060
     FM240000 23009KT P6SM SCT050 BKN200
     FM240300 22007KT P6SM -SHRA BKN060=

USA.gov is the U.S. government's official web portal to all federal, state and local government web resources and services.